createdAt,value
2019-03-25T00:00:14.634Z,5.3
2019-03-25T00:05:16.936Z,5.2
2019-03-25T00:10:19.236Z,5.2
2019-03-25T00:15:21.621Z,5.2
2019-03-25T00:20:23.809Z,5.2
2019-03-25T00:25:26.092Z,5.2
2019-03-25T00:30:28.502Z,5.2
2019-03-25T00:35:30.793Z,5.2
2019-03-25T00:40:32.952Z,5.2
2019-03-25T00:45:35.509Z,5.2
2019-03-25T00:50:37.619Z,5.2
2019-03-25T00:55:39.850Z,5.2
2019-03-25T01:00:42.186Z,5.2
2019-03-25T01:05:44.449Z,5.2
2019-03-25T01:10:48.007Z,5.2
2019-03-25T01:15:50.531Z,5.2
2019-03-25T01:20:51.468Z,5.2
2019-03-25T01:25:53.764Z,5.2
2019-03-25T01:30:56.098Z,5.1
2019-03-25T01:35:58.289Z,5.1
2019-03-25T01:41:00.523Z,5.1
2019-03-25T01:46:02.874Z,5.1
2019-03-25T01:51:05.079Z,5
2019-03-25T01:56:07.449Z,5
2019-03-25T02:01:11.551Z,4.9
2019-03-25T02:06:12.042Z,4.9
2019-03-25T02:11:14.505Z,4.8
2019-03-25T02:16:16.590Z,4.8
2019-03-25T02:21:18.916Z,4.7
2019-03-25T02:26:21.207Z,4.7
2019-03-25T02:31:23.462Z,4.7
2019-03-25T02:36:25.832Z,4.7
2019-03-25T02:41:29.486Z,4.7
2019-03-25T02:46:30.300Z,4.7
2019-03-25T02:51:32.607Z,4.7
2019-03-25T02:56:34.978Z,4.7
2019-03-25T03:01:37.378Z,4.8
2019-03-25T03:06:43.921Z,4.9
2019-03-25T03:11:41.804Z,4.9
2019-03-25T03:16:44.111Z,5
2019-03-25T03:24:18.011Z,5.1
2019-03-25T03:38:07.941Z,5.3
2019-03-25T03:43:09.233Z,5.4
2019-03-25T03:48:11.572Z,5.5
2019-03-25T03:53:13.810Z,5.7
2019-03-25T03:58:16.062Z,5.9
2019-03-25T04:03:19.747Z,6
2019-03-25T04:08:22.081Z,6.2
2019-03-25T04:13:22.926Z,6.3
2019-03-25T04:18:25.336Z,6.4
2019-03-25T04:23:27.694Z,6.3
2019-03-25T04:28:31.525Z,6.5
2019-03-25T04:33:32.139Z,6.5
2019-03-25T04:38:34.343Z,6.4
2019-03-25T04:43:36.745Z,6.3
2019-03-25T04:48:39.025Z,6.3
2019-03-25T04:53:41.299Z,6.4
2019-03-25T04:58:43.571Z,6.4
2019-03-25T05:03:46.028Z,6.3
2019-03-25T05:08:48.280Z,6.2
2019-03-25T05:13:50.534Z,6.1
2019-03-25T05:18:52.789Z,6
2019-03-25T05:28:57.333Z,5.7
2019-03-25T05:33:59.751Z,5.7
2019-03-25T05:39:02.023Z,5.7
2019-03-25T05:44:04.413Z,5.6
2019-03-25T05:49:06.580Z,5.6
2019-03-25T05:54:08.855Z,5.6
2019-03-25T05:59:11.180Z,5.6
2019-03-25T06:04:13.471Z,5.6
2019-03-25T06:09:15.739Z,5.6
2019-03-25T06:14:17.973Z,5.6
2019-03-25T06:19:20.312Z,5.6
2019-03-25T06:24:22.566Z,5.6
2019-03-25T06:29:24.951Z,5.7
2019-03-25T06:42:37.651Z,5.8
2019-03-25T06:47:39.926Z,6
2019-03-25T06:52:42.169Z,6.1
2019-03-25T06:57:44.510Z,6.2
2019-03-25T07:02:46.692Z,6.3
2019-03-25T07:07:48.991Z,6.4
2019-03-25T07:12:51.246Z,6.4
2019-03-25T07:17:53.626Z,6.5
2019-03-25T07:22:55.981Z,6.7
2019-03-25T07:27:58.259Z,6.7
2019-03-25T07:33:00.632Z,6.9
2019-03-25T07:38:02.878Z,7
2019-03-25T07:43:05.023Z,7
2019-03-25T07:48:07.351Z,7.2
2019-03-25T07:53:09.735Z,7.3
2019-03-25T07:58:11.939Z,7.4
2019-03-25T08:03:14.390Z,7.4
2019-03-25T08:08:18.307Z,7.3
2019-03-25T08:13:19.049Z,7.4
2019-03-25T08:18:21.196Z,7.5
2019-03-25T08:23:23.414Z,7.7
2019-03-25T08:28:26.543Z,7.9
2019-03-25T08:33:27.959Z,8
2019-03-25T08:38:31.835Z,7.9
2019-03-25T08:43:32.579Z,7.4
2019-03-25T08:48:34.953Z,6.5
2019-03-25T08:53:37.252Z,6.2
2019-03-25T08:58:39.419Z,6
2019-03-25T09:03:41.818Z,6.3
2019-03-25T09:08:44.105Z,6.6
2019-03-25T09:13:46.381Z,7.1
2019-03-25T09:18:48.791Z,7.5
2019-03-25T09:23:50.984Z,7.9
2019-03-25T09:28:53.357Z,8.4
2019-03-25T09:33:57.239Z,8.7
2019-03-25T09:38:59.360Z,8.9
2019-03-25T09:44:00.193Z,8.9
2019-03-25T09:49:02.418Z,9.6
2019-03-25T10:25:50.629Z,9.9
2019-03-25T10:30:52.137Z,10
2019-03-25T10:35:54.326Z,10.1
2019-03-25T10:40:56.619Z,10.7
2019-03-25T10:53:26.903Z,9.9
2019-03-25T10:58:29.219Z,10.4
2019-03-25T11:03:31.527Z,11.1
2019-03-25T11:08:33.752Z,11.8
2019-03-25T11:13:36.001Z,11.9
2019-03-25T11:18:38.288Z,12.2
2019-03-25T11:23:41.843Z,12.7
2019-03-25T11:28:42.947Z,12.5
2019-03-25T11:33:45.366Z,11.9
2019-03-25T11:38:47.593Z,12.2
2019-03-25T11:43:49.818Z,12.4
2019-03-25T11:48:52.140Z,11.8
2019-03-25T11:53:56.011Z,10.8
2019-03-25T11:58:56.777Z,10.8
2019-03-25T12:03:59.048Z,10.4
2019-03-25T12:09:01.273Z,11.2
2019-03-25T12:14:03.571Z,12.7
2019-03-25T12:19:06.113Z,12.2
2019-03-25T12:24:08.253Z,12.1
2019-03-25T12:29:10.432Z,12.4
2019-03-25T12:34:12.891Z,12.8
2019-03-25T12:39:15.092Z,12.3
2019-03-25T12:44:17.309Z,10.9
2019-03-25T12:49:19.717Z,11.8
2019-03-25T12:54:23.866Z,11.5
2019-03-25T12:59:25.364Z,10.9
2019-03-25T13:04:26.482Z,11.3
2019-03-25T13:09:28.806Z,11.2
2019-03-25T13:14:31.227Z,11.3
2019-03-25T13:19:33.441Z,11.1
2019-03-25T13:24:35.727Z,10.7
2019-03-25T13:29:52.005Z,10.4
2019-03-25T13:34:40.283Z,10.3
2019-03-25T13:39:44.792Z,9.6
2019-03-25T13:44:44.850Z,9.9
2019-03-25T13:49:48.403Z,11.1
2019-03-25T13:54:49.526Z,12.2
2019-03-25T14:00:02.731Z,12.6
2019-03-25T14:04:54.123Z,12
2019-03-25T14:09:56.408Z,11.6
2019-03-25T14:20:02.480Z,10.7
2019-03-25T14:25:03.181Z,10.3
2019-03-25T14:30:14.031Z,10.6
2019-03-25T14:35:07.929Z,11
2019-03-25T14:40:10.052Z,10.5
2019-03-25T14:45:12.543Z,10
2019-03-25T14:50:14.765Z,9.9
2019-03-25T14:55:17.075Z,9.8
2019-03-25T15:00:25.440Z,9.6
2019-03-25T15:05:21.551Z,9.5
2019-03-25T15:16:55.977Z,9.4
2019-03-25T15:21:59.551Z,9.2
2019-03-25T15:27:00.544Z,9.3
2019-03-25T15:40:32.816Z,9.3
2019-03-25T15:45:34.978Z,9.3
2019-03-25T15:50:37.227Z,9.3
2019-03-25T15:55:39.411Z,9.4
2019-03-25T16:00:47.943Z,9.3
2019-03-25T16:05:43.975Z,9.3
2019-03-25T16:10:46.317Z,9.2
2019-03-25T16:15:48.742Z,9
2019-03-25T16:20:51.014Z,8.9
2019-03-25T16:25:53.254Z,8.9
2019-03-25T16:30:58.942Z,8.8
2019-03-25T16:35:57.795Z,8.7
2019-03-25T16:41:01.444Z,8.7
2019-03-25T16:46:02.459Z,8.6
2019-03-25T16:51:04.655Z,8.6
2019-03-25T16:56:08.234Z,8.6
2019-03-25T17:01:10.256Z,8.5
2019-03-25T17:06:21.716Z,8.6
2019-03-25T17:19:29.019Z,8.4
2019-03-25T17:24:31.175Z,8.5
2019-03-25T17:29:33.723Z,8.4
2019-03-25T17:34:36.064Z,8.3
2019-03-25T17:39:38.146Z,8.2
2019-03-25T17:44:40.446Z,8.3
2019-03-25T17:49:58.924Z,8.1
2019-03-25T17:54:58.945Z,8.1
2019-03-25T18:00:02.643Z,8.1
2019-03-25T18:05:03.565Z,8
2019-03-25T18:10:06.052Z,8
2019-03-25T18:15:08.265Z,8
2019-03-25T18:20:18.435Z,8
2019-03-25T18:25:14.405Z,7.9
2019-03-25T18:30:19.292Z,7.9
2019-03-25T18:35:17.494Z,7.9
2019-03-25T18:40:19.938Z,7.9
2019-03-25T18:45:22.104Z,7.8
2019-03-25T18:50:25.211Z,7.8
2019-03-25T18:55:27.494Z,7.8
2019-03-25T19:00:39.381Z,7.8
2019-03-25T19:14:13.030Z,7.7
2019-03-25T19:19:14.254Z,7.7
2019-03-25T19:24:16.500Z,7.8
2019-03-25T19:29:18.856Z,7.7
2019-03-25T19:34:21.183Z,7.7
2019-03-25T19:39:23.401Z,7.6
2019-03-25T19:44:27.563Z,7.6
2019-03-25T19:49:28.008Z,7.6
2019-03-25T19:54:30.518Z,7.5
2019-03-25T19:59:32.514Z,7.5
2019-03-25T20:04:34.791Z,7.5
2019-03-25T20:09:37.201Z,7.5
2019-03-25T20:14:39.419Z,7.5
2019-03-25T20:19:41.716Z,7.5
2019-03-25T20:24:44.020Z,7.5
2019-03-25T20:29:46.378Z,7.4
2019-03-25T20:34:48.690Z,7.3
2019-03-25T20:45:29.335Z,7.3
2019-03-25T20:50:33.434Z,7.3
2019-03-25T20:55:34.591Z,7.2
2019-03-25T21:00:37.969Z,7
2019-03-25T21:05:39.274Z,6.9
2019-03-25T21:10:41.331Z,6.9
2019-03-25T21:20:46.025Z,6.9
2019-03-25T21:25:48.295Z,6.9
2019-03-25T21:44:50.096Z,7.1
2019-03-25T21:49:50.357Z,7
2019-03-25T21:54:52.532Z,7
2019-03-25T21:59:54.861Z,7
2019-03-25T22:04:57.412Z,6.9
2019-03-25T22:09:59.540Z,6.8
2019-03-25T22:15:01.794Z,6.8
2019-03-25T22:20:04.157Z,6.7
2019-03-25T22:25:06.353Z,6.8
2019-03-25T22:30:08.591Z,6.8
2019-03-25T22:35:10.946Z,6.8
2019-03-25T22:40:13.309Z,6.8
2019-03-25T22:45:15.437Z,6.9
2019-03-25T22:50:17.718Z,6.8
2019-03-25T22:55:23.265Z,6.8
2019-03-25T23:00:24.278Z,6.8
2019-03-25T23:05:46.911Z,6.8
2019-03-25T23:10:27.039Z,6.8
2019-03-25T23:15:29.382Z,6.8
2019-03-25T23:20:32.605Z,6.8
2019-03-25T23:25:33.839Z,6.8
2019-03-25T23:30:40.172Z,6.8
2019-03-25T23:35:38.433Z,6.8
2019-03-25T23:40:40.725Z,6.8
2019-03-25T23:45:43.096Z,6.8
2019-03-25T23:50:45.407Z,6.8
2019-03-25T23:55:47.656Z,6.8
